Archival Weather

Tokyo Intl

Tokyo Intl, Japan (RJTT)

Report from: Friday, June 24, 2022 3:00 AM JST
Current time: Tuesday, August 16, 2022 4:44 PM JST

Current weather
Weather history
Weather forecast

Temperature23.0°C (73.4°F)
Dew point22.0°C (71.6°F)
Winds 13 kts (6.7 m/s, 15 mph) South (190°)
Visibility6.2 mi. (10 km)
Clouds Few clouds 400 ft. (122 m)
Few clouds 500 ft. (152 m)
Scattered clouds 700 ft. (213 m)
Ceiling: Broken clouds 800 ft. (244 m)
Broken clouds 3,000 ft. (914 m)
Altimeter29.77 in.Hg (1008 mB)
Relative humidity94 %
Density altitude1,464 ft. (446 m)
Flight conditions Instrument Meteorological Conditions
Raw dataRJTT 231800Z 19013KT 9999 FEW004 SCT007 BKN030 23/22 Q1008 TEMPO FEW005 BKN008
An error has occurred. This application may no longer respond until reloaded. Reload 🗙